Friday, April 18, 2014
15:42 UTC
  |  Log In   |  Register Free
Airport Search:

Powell Municipal Airport
(KPOY)

Powell Municipal Airport Diagram
No Airport Diagram Available

FAA data valid effective April 3, 2014 until May 29, 2014 (unless otherwise noted).

 
 
 
 
 
 
 
 
 
 
 
 
 
 

Current Aviation Weather for Powell Municipal Airport (KPOY)

The most recent METAR observation for KCOD was updated at: 1455 UTC
METAR Summary (Translated METAR)
KCOD
181455Z 00000KT 10SM CLR 11/03 A2974 RMK AO1 57010
KGEY
(40.3 nm SE from KCOD)
181453Z AUTO 32003KT 10SM CLR 09/02 A2972 RMK AO2 SLP055 T00940022 56014
TAF Summary (Translated TAF)
KCOD
181131Z 1812/1912 22012G20KT P6SM SCT090 BKN150 WS020/24040KT FM181600 23014G24KT P6SM VCSH SCT080 BKN120 FM182200 26015G25KT P6SM SCT120 FM190200 30011KT P6SM FEW060 SCT250 AMD LTD TO CLD VIS AND WIND
  Airport Weather Conditions for KPOY

Current weather conditions are
not available for POY


The nearest NOAA weather station
is at COD, (23 nm SW from POY)
  
 Current Weather at COD
52° F
Fair
North winds at 0.0 mph
COD NOAA Radar

Pressure: 29.74 in
Humidity: 58%
Wind: Calm
Dew Point: 37.4°F
Visibility: 10.00 mi


Airport Weather Forecast for KPOY

Translated METAR and TAF for KCOD
Translated METAR for KCOD (1542 UTC 18 April 2014)
found at http://aviationweather.gov/adds/metars/
 
METAR text: KCOD 181535Z 17005KT 10SM CLR 13/03 A2973 RMK AO1
Conditions at: KCOD (CODY , WY, US) observed 1535 UTC 18 April 2014
Temperature: 13.0°C (55°F)
Dewpoint: 3.0°C (37°F) [RH = 51%]
Pressure (altimeter): 29.73 inches Hg (1006.9 mb)
Winds: from the S (170 degrees) at 6 MPH (5 knots; 2.6 m/s)
Visibility: 10 or more miles (16+ km)
Ceiling: at least 12,000 feet AGL
Clouds: sky clear below 12,000 feet AGL
Weather: no significant weather observed at this time
Translated TAF for KCOD
Forecast for: KCOD (CODY , WY, US)
TAF Text: KCOD 181131Z 1812/1912 22012G20KT P6SM SCT090 BKN150 WS020/24040KT
Forecast period: 1200 to 1600 UTC 18 April 2014
Forecast type: FROM: standard forecast or significant change
Winds: from the SW (220 degrees) at 14 MPH (12 knots; 6.2 m/s)
gusting to 23 MPH (20 knots; 10.4 m/s)
Visibility: 6 or more miles (10+ km)
Ceiling: 15000 feet AGL
Clouds: scattered clouds at 9000 feet AGL
broken clouds at 15000 feet AGL
Wind shear: at 2000 feet ( 610 m) AGL, from the WSW (240 degrees) at 46 MPH (40 knots; 20.8 m/s)
Weather: no significant weather forecast for this period
TAF Text: FM181600 23014G24KT P6SM VCSH SCT080 BKN120
Forecast period: 1600 to 2200 UTC 18 April 2014
Forecast type: FROM: standard forecast or significant change
Winds: from the SW (230 degrees) at 16 MPH (14 knots; 7.3 m/s)
gusting to 28 MPH (24 knots; 12.5 m/s)
Visibility: 6 or more miles (10+ km)
Ceiling: 12000 feet AGL
Clouds: scattered clouds at 8000 feet AGL
broken clouds at 12000 feet AGL
Weather: VCSH  (showers in vicinity)
TAF Text: FM182200 26015G25KT P6SM SCT120
Forecast period: 2200 UTC 18 April 2014 to 0200 UTC 19 April 2014
Forecast type: FROM: standard forecast or significant change
Winds: from the W (260 degrees) at 17 MPH (15 knots; 7.8 m/s)
gusting to 29 MPH (25 knots; 13.0 m/s)
Visibility: 6 or more miles (10+ km)
Clouds: scattered clouds at 12000 feet AGL
Weather: no significant weather forecast for this period
TAF Text: FM190200 30011KT P6SM FEW060 SCT250 AMD LTD TO CLD VIS AND WIND
Forecast period: 0200 to 1200 UTC 19 April 2014
Forecast type: FROM: standard forecast or significant change
Winds: from the WNW (300 degrees) at 13 MPH (11 knots; 5.7 m/s)
Visibility: 6 or more miles (10+ km)
Clouds: few clouds at 6000 feet AGL
scattered clouds at 25000 feet AGL
Weather: no significant weather forecast for this period

Find All Airport Services Find A Hotel Find A Rental Car Find A Golf Course Find A Restaurant $100 Hamburger



FBO's on the Field
FBO Company Facility Photos Services Transportation Aviation Fuel Prices: Prices include tax
Catering Weather Repair Courtesy Rental Type 100LL JetA JetA+ MOGAS 8087
 
City of Powell

This FBO has not yet been rated
FS:Independent
Last Updated: Apr-16
Login to update fuel prices
SS:
Contact City of PowellMore FBO Information
 
Add another FBO Facility Photos Catering Weather Repair Courtesy Rental Type 100LL JetA JetA+ MOGAS 8087
Services Transportation Aviation Fuel Prices: Prices include tax


GlobalAir.com Airport Resource Center model-print
model-print
model-print
model-print